Time;durP1;ratioP1;P1;durP2;ratioP2;P2;SDS_P1;SDS_P2;PMS_P1;PMS_P2;Temp;Humidity;BMP_temperature;BMP_pressure;BME280_temperature;BME280_humidity;BME280_pressure;Samples;Min_cycle;Max_cycle;Signal;HPM_P1;HPM_P2
2022/10/27 00:01:39;;;;;;;5.70;3.10;;;11.40;99.90;;;;;;1957241;72;21132;-74
2022/10/27 00:04:06;;;;;;;6.53;2.55;;;11.40;99.90;;;;;;1957129;73;21131;-75
2022/10/27 00:06:34;;;;;;;8.23;2.72;;;11.40;99.90;;;;;;1956655;71;21063;-74
2022/10/27 00:09:01;;;;;;;7.25;2.85;;;11.30;99.90;;;;;;1956529;73;21059;-74
2022/10/27 00:11:29;;;;;;;10.82;3.37;;;11.30;99.90;;;;;;1956908;73;21054;-75
2022/10/27 00:13:56;;;;;;;9.58;3.27;;;11.20;99.90;;;;;;1957792;73;21031;-74
2022/10/27 00:16:23;;;;;;;11.20;2.80;;;11.20;99.90;;;;;;1952162;72;21062;-75
2022/10/27 00:18:50;;;;;;;10.58;2.95;;;11.20;99.90;;;;;;1958657;72;21462;-75
2022/10/27 00:21:19;;;;;;;7.30;3.00;;;11.10;99.90;;;;;;1956143;73;21059;-75
2022/10/27 00:23:49;;;;;;;8.93;2.87;;;11.10;99.90;;;;;;1958493;72;21453;-74
2022/10/27 00:26:18;;;;;;;7.92;2.77;;;11.00;99.90;;;;;;1953564;73;21031;-75
2022/10/27 00:28:45;;;;;;;7.80;3.05;;;10.90;99.90;;;;;;1958403;72;21422;-75
2022/10/27 00:31:18;;;;;;;12.60;3.40;;;10.90;99.90;;;;;;1958342;72;21062;-73
2022/10/27 00:33:46;;;;;;;5.97;2.92;;;11.00;99.90;;;;;;1953137;73;21139;-74
2022/10/27 00:36:16;;;;;;;10.45;3.00;;;11.00;99.90;;;;;;1958465;72;21066;-75
2022/10/27 00:38:44;;;;;;;8.25;3.17;;;11.00;99.90;;;;;;1957705;73;21528;-75
2022/10/27 00:41:37;;;;;;;8.08;2.80;;;10.90;99.90;;;;;;1958645;73;21054;-75
2022/10/27 00:44:42;;;;;;;11.70;3.42;;;10.90;99.90;;;;;;1954145;72;21078;-73
2022/10/27 00:47:22;;;;;;;6.58;3.15;;;10.90;99.90;;;;;;1958853;73;21450;-73
2022/10/27 00:50:01;;;;;;;15.03;3.73;;;10.80;99.90;;;;;;1955160;73;21125;-75
2022/10/27 00:52:40;;;;;;;7.00;3.08;;;10.80;99.90;;;;;;1958661;72;21262;-75
2022/10/27 00:55:14;;;;;;;20.17;3.45;;;10.70;99.90;;;;;;1956621;73;21194;-74
2022/10/27 00:57:42;;;;;;;10.43;2.87;;;10.70;99.90;;;;;;1956068;73;21203;-73
2022/10/27 01:00:10;;;;;;;2.72;2.30;;;10.70;99.90;;;;;;1958299;72;21070;-74
2022/10/27 01:02:37;;;;;;;8.13;3.05;;;10.70;99.90;;;;;;1958594;73;21058;-74
2022/10/27 01:05:14;;;;;;;5.42;2.80;;;10.70;99.90;;;;;;1955924;73;21055;-74
2022/10/27 01:07:41;;;;;;;8.18;2.77;;;10.70;99.90;;;;;;1955787;73;21031;-74
2022/10/27 01:10:08;;;;;;;8.50;2.87;;;10.70;99.90;;;;;;1957281;73;21124;-74
2022/10/27 01:12:36;;;;;;;23.77;3.72;;;10.70;99.90;;;;;;1958690;72;21493;-75
2022/10/27 01:15:03;;;;;;;9.63;3.27;;;10.70;99.90;;;;;;1959177;73;21180;-75
2022/10/27 01:17:49;;;;;;;6.78;2.77;;;10.70;99.90;;;;;;1958917;73;21665;-74
2022/10/27 01:20:44;;;;;;;10.30;3.10;;;10.70;99.90;;;;;;1959114;71;21543;-73
2022/10/27 01:23:23;;;;;;;7.67;3.05;;;10.60;99.90;;;;;;1957424;73;21446;-74
2022/10/27 01:25:53;;;;;;;6.30;3.42;;;10.60;99.90;;;;;;1955414;73;21211;-75
2022/10/27 01:28:51;;;;;;;6.08;3.22;;;10.60;99.90;;;;;;1958033;73;21058;-75
2022/10/27 01:31:38;;;;;;;9.53;3.75;;;10.50;99.90;;;;;;1951271;73;21613;-75
2022/10/27 01:34:18;;;;;;;10.03;3.42;;;10.60;99.90;;;;;;1955151;73;21237;-75
2022/10/27 01:37:01;;;;;;;7.80;3.50;;;10.50;99.90;;;;;;1955413;73;21032;-73
2022/10/27 01:39:31;;;;;;;5.87;2.42;;;10.50;99.90;;;;;;1958865;73;21446;-74
2022/10/27 01:42:02;;;;;;;13.18;3.40;;;10.40;99.90;;;;;;1958239;73;21206;-73
2022/10/27 01:44:32;;;;;;;5.65;2.72;;;10.50;99.90;;;;;;1958574;73;21151;-73
2022/10/27 01:46:59;;;;;;;10.68;3.22;;;10.40;99.90;;;;;;1955193;72;21524;-74
2022/10/27 01:49:38;;;;;;;11.50;3.35;;;10.40;99.90;;;;;;1957196;73;21035;-73
2022/10/27 01:52:07;;;;;;;10.13;3.58;;;10.30;99.90;;;;;;1953071;73;21074;-72
2022/10/27 01:54:35;;;;;;;8.03;3.25;;;10.40;99.90;;;;;;1952793;73;21532;-72
2022/10/27 01:57:25;;;;;;;10.68;3.10;;;10.40;99.90;;;;;;1958370;72;21027;-73
2022/10/27 02:00:06;;;;;;;11.78;3.25;;;10.40;99.90;;;;;;1956308;72;21427;-73
2022/10/27 02:02:36;;;;;;;7.00;3.27;;;10.30;99.90;;;;;;1958530;71;21039;-72
2022/10/27 02:05:19;;;;;;;7.28;3.33;;;10.20;99.90;;;;;;1957910;73;21171;-74
2022/10/27 02:07:58;;;;;;;10.95;3.27;;;10.20;99.90;;;;;;1955268;73;21059;-74
2022/10/27 02:10:34;;;;;;;10.25;3.87;;;10.30;99.90;;;;;;1943041;73;21054;-74
2022/10/27 02:13:01;;;;;;;9.75;3.37;;;10.20;99.90;;;;;;1957274;73;21074;-72
2022/10/27 02:15:36;;;;;;;7.53;3.42;;;10.10;99.90;;;;;;1955781;72;21062;-74
2022/10/27 02:18:06;;;;;;;11.20;4.00;;;10.10;99.90;;;;;;1957755;72;21039;-73
2022/10/27 02:20:36;;;;;;;11.68;4.28;;;10.10;99.90;;;;;;1957490;73;21070;-72
2022/10/27 02:23:08;;;;;;;11.08;3.62;;;10.10;99.90;;;;;;1958172;71;21172;-72
2022/10/27 02:25:56;;;;;;;5.95;3.83;;;10.10;99.90;;;;;;1958372;73;21472;-74
2022/10/27 02:28:26;;;;;;;11.57;3.37;;;10.10;99.90;;;;;;1957772;73;21043;-73
2022/10/27 02:30:54;;;;;;;9.03;3.17;;;10.00;99.90;;;;;;1955927;73;21450;-73
2022/10/27 02:33:21;;;;;;;6.83;3.10;;;9.90;99.90;;;;;;1958972;73;21147;-74
2022/10/27 02:35:48;;;;;;;9.25;3.50;;;9.80;99.90;;;;;;1958323;73;21074;-73
2022/10/27 02:38:16;;;;;;;6.80;2.85;;;9.70;99.90;;;;;;1958696;72;21445;-72
2022/10/27 02:40:43;;;;;;;14.50;3.47;;;9.80;99.90;;;;;;1958357;72;21148;-74
2022/10/27 02:43:10;;;;;;;9.43;3.40;;;9.80;99.90;;;;;;1957848;71;21128;-74
2022/10/27 02:45:37;;;;;;;6.87;3.37;;;9.80;99.90;;;;;;1958601;72;21070;-73
2022/10/27 02:48:05;;;;;;;7.25;3.52;;;9.80;99.90;;;;;;1957327;72;21058;-74
2022/10/27 02:50:32;;;;;;;9.73;4.62;;;9.80;99.90;;;;;;1957621;73;21078;-73
2022/10/27 02:52:59;;;;;;;9.98;4.15;;;9.80;99.90;;;;;;1958625;72;21324;-74
2022/10/27 02:55:27;;;;;;;12.58;4.30;;;9.80;99.90;;;;;;1958322;72;21434;-73
2022/10/27 02:57:54;;;;;;;5.85;2.77;;;9.80;99.90;;;;;;1956709;73;21054;-73
2022/10/27 03:00:21;;;;;;;13.98;3.65;;;9.70;99.90;;;;;;1955326;73;21058;-74
2022/10/27 03:02:49;;;;;;;10.85;3.87;;;9.80;99.90;;;;;;1957614;73;21106;-72
2022/10/27 03:05:19;;;;;;;8.53;3.90;;;9.70;99.90;;;;;;1959145;71;21035;-73
2022/10/27 03:07:46;;;;;;;14.15;4.37;;;9.70;99.90;;;;;;1958548;71;21054;-74
2022/10/27 03:10:14;;;;;;;11.80;3.80;;;9.70;99.90;;;;;;1958799;73;21540;-74
2022/10/27 03:12:41;;;;;;;7.53;3.83;;;9.70;99.90;;;;;;1958631;73;21062;-73
2022/10/27 03:15:08;;;;;;;7.62;3.50;;;9.60;99.90;;;;;;1957872;73;21198;-74
2022/10/27 03:17:36;;;;;;;10.10;3.27;;;9.60;99.90;;;;;;1958626;72;21116;-74
2022/10/27 03:20:03;;;;;;;8.38;3.22;;;9.70;99.90;;;;;;1958450;73;21131;-73
2022/10/27 03:22:30;;;;;;;7.28;3.62;;;9.70;99.90;;;;;;1958145;73;21106;-72
2022/10/27 03:24:58;;;;;;;11.93;3.35;;;9.70;99.90;;;;;;1956727;73;21531;-73
2022/10/27 03:27:25;;;;;;;12.82;3.83;;;9.70;99.90;;;;;;1953120;73;21101;-74
2022/10/27 03:29:52;;;;;;;15.03;4.05;;;9.60;99.90;;;;;;1957775;73;21539;-74
2022/10/27 03:32:20;;;;;;;6.67;3.85;;;9.60;99.90;;;;;;1957985;73;21147;-74
2022/10/27 03:34:47;;;;;;;27.45;4.28;;;9.60;99.90;;;;;;1958129;73;21059;-74
2022/10/27 03:37:14;;;;;;;10.10;4.25;;;9.60;99.90;;;;;;1957215;73;21066;-74
2022/10/27 03:39:42;;;;;;;12.60;4.45;;;9.60;99.90;;;;;;1955924;71;21055;-73
2022/10/27 03:42:09;;;;;;;10.93;4.08;;;9.70;99.90;;;;;;1957502;73;21152;-74
2022/10/27 03:44:36;;;;;;;11.28;4.33;;;9.70;99.90;;;;;;1958151;73;21032;-74
2022/10/27 03:47:04;;;;;;;24.75;4.60;;;9.80;99.90;;;;;;1954960;72;21145;-73
2022/10/27 03:49:31;;;;;;;16.07;4.33;;;9.70;99.90;;;;;;1953858;72;21289;-73
2022/10/27 03:51:58;;;;;;;9.03;4.17;;;9.60;99.90;;;;;;1957837;73;21163;-73
2022/10/27 03:54:27;;;;;;;37.67;5.33;;;9.60;99.90;;;;;;1956550;72;21451;-73
2022/10/27 03:56:54;;;;;;;49.00;4.72;;;9.40;99.90;;;;;;1923142;73;21062;-73
2022/10/27 03:59:22;;;;;;;51.65;5.05;;;9.40;99.90;;;;;;1958463;73;21132;-73
2022/10/27 04:01:49;;;;;;;23.75;4.83;;;9.30;99.90;;;;;;1921836;73;21106;-73
2022/10/27 04:04:16;;;;;;;38.02;5.17;;;9.30;99.90;;;;;;1957300;73;21117;-74
2022/10/27 04:06:44;;;;;;;24.98;4.85;;;9.30;99.90;;;;;;1958353;72;21206;-74
2022/10/27 04:09:11;;;;;;;18.57;4.78;;;9.40;99.90;;;;;;1957750;71;21180;-74
2022/10/27 04:11:38;;;;;;;11.18;4.37;;;9.50;99.90;;;;;;1958991;71;21193;-74
2022/10/27 04:14:06;;;;;;;20.95;4.60;;;9.60;99.90;;;;;;1952092;73;21245;-74
2022/10/27 04:16:33;;;;;;;13.65;4.78;;;9.60;99.90;;;;;;1953722;73;21143;-74
2022/10/27 04:19:01;;;;;;;42.50;5.25;;;9.70;99.90;;;;;;1956965;73;21136;-74
2022/10/27 04:21:28;;;;;;;39.78;5.30;;;9.70;99.90;;;;;;1957647;72;21058;-74
2022/10/27 04:23:55;;;;;;;56.63;6.40;;;9.70;99.90;;;;;;1955249;73;21143;-74
2022/10/27 04:26:23;;;;;;;10.00;4.70;;;9.60;99.90;;;;;;1954652;73;21143;-73
2022/10/27 04:28:50;;;;;;;63.80;5.47;;;9.70;99.90;;;;;;1958029;72;21453;-75
2022/10/27 04:31:18;;;;;;;43.00;5.97;;;9.70;99.90;;;;;;1957913;73;21140;-75
2022/10/27 04:33:45;;;;;;;35.45;4.80;;;9.60;99.90;;;;;;1954693;73;21164;-73
2022/10/27 04:36:12;;;;;;;46.85;4.60;;;9.60;99.90;;;;;;1957369;73;21466;-74
2022/10/27 04:38:40;;;;;;;50.85;5.22;;;9.40;99.90;;;;;;1956725;73;21066;-74
2022/10/27 04:41:09;;;;;;;86.08;6.67;;;9.40;99.90;;;;;;1958740;72;21241;-74
2022/10/27 04:43:36;;;;;;;44.40;6.33;;;9.40;99.90;;;;;;1957219;73;21063;-74
2022/10/27 04:46:03;;;;;;;60.45;5.62;;;9.40;99.90;;;;;;1957750;72;21130;-73
2022/10/27 04:48:31;;;;;;;9.20;4.83;;;9.40;99.90;;;;;;1958489;72;21050;-74
2022/10/27 04:50:58;;;;;;;39.58;5.83;;;9.40;99.90;;;;;;1956368;72;21540;-75
2022/10/27 04:53:25;;;;;;;75.37;6.47;;;9.40;99.90;;;;;;1955914;73;21031;-71
2022/10/27 04:55:53;;;;;;;49.85;6.62;;;9.40;99.90;;;;;;1957508;72;21458;-74
2022/10/27 04:58:21;;;;;;;23.25;4.85;;;9.40;99.90;;;;;;1958410;73;21534;-71
2022/10/27 05:00:48;;;;;;;42.00;5.30;;;9.40;99.90;;;;;;1957679;73;21458;-71
2022/10/27 05:03:16;;;;;;;73.02;5.85;;;9.30;99.90;;;;;;1957805;73;21128;-72
2022/10/27 05:05:43;;;;;;;43.68;5.72;;;9.30;99.90;;;;;;1958484;73;21132;-72
2022/10/27 05:08:11;;;;;;;21.37;5.47;;;9.30;99.90;;;;;;1922350;73;21072;-73
2022/10/27 05:10:38;;;;;;;34.45;6.03;;;9.40;99.90;;;;;;1956222;73;21066;-71
2022/10/27 05:13:05;;;;;;;26.42;6.30;;;9.50;99.90;;;;;;1956233;72;21058;-71
2022/10/27 05:15:32;;;;;;;18.60;5.87;;;9.30;99.90;;;;;;1957604;73;21137;-73
2022/10/27 05:18:00;;;;;;;12.63;5.22;;;9.30;99.90;;;;;;1958280;73;21063;-74
2022/10/27 05:20:27;;;;;;;21.85;5.40;;;9.40;99.90;;;;;;1958447;72;21070;-73
2022/10/27 05:22:54;;;;;;;32.40;5.35;;;9.40;99.90;;;;;;1958937;73;21031;-74
2022/10/27 05:25:22;;;;;;;32.23;6.03;;;9.40;99.90;;;;;;1956932;73;21474;-73
2022/10/27 05:27:49;;;;;;;36.58;5.25;;;9.40;99.90;;;;;;1957944;73;21194;-73
2022/10/27 05:30:16;;;;;;;45.35;4.90;;;9.30;99.90;;;;;;1958358;73;21054;-73
2022/10/27 05:32:44;;;;;;;26.10;4.55;;;9.10;99.90;;;;;;1958287;72;21432;-72
2022/10/27 05:35:11;;;;;;;44.77;4.80;;;9.20;99.90;;;;;;1958274;73;21132;-72
2022/10/27 05:37:41;;;;;;;45.40;4.75;;;9.10;99.90;;;;;;1954108;72;21132;-73
2022/10/27 05:40:10;;;;;;;32.20;5.40;;;9.10;99.90;;;;;;1953866;72;21152;-74
2022/10/27 05:42:37;;;;;;;22.30;4.92;;;9.10;99.90;;;;;;1957840;73;21512;-74
2022/10/27 05:45:05;;;;;;;31.87;4.75;;;9.10;99.90;;;;;;1958636;73;21035;-73
2022/10/27 05:47:32;;;;;;;39.08;5.35;;;9.10;99.90;;;;;;1957969;73;21262;-72
2022/10/27 05:49:59;;;;;;;22.55;4.83;;;9.10;99.90;;;;;;1958151;73;21182;-72
2022/10/27 05:52:27;;;;;;;24.30;4.83;;;9.10;99.90;;;;;;1954655;73;21462;-75
2022/10/27 05:54:54;;;;;;;26.85;5.67;;;9.10;99.90;;;;;;1958717;73;21173;-72
2022/10/27 05:57:22;;;;;;;17.02;5.33;;;9.10;99.90;;;;;;1957600;73;21204;-71
2022/10/27 05:59:49;;;;;;;31.25;6.25;;;9.00;99.90;;;;;;1959431;71;21031;-72
2022/10/27 06:02:16;;;;;;;52.25;5.60;;;9.00;99.90;;;;;;1936645;73;22666;-71
2022/10/27 06:04:43;;;;;;;24.87;5.20;;;8.90;99.90;;;;;;1956548;73;21181;-72
2022/10/27 06:07:11;;;;;;;19.15;5.15;;;8.90;99.90;;;;;;1959227;71;21520;-72
2022/10/27 06:09:38;;;;;;;42.20;6.30;;;9.00;99.90;;;;;;1958020;73;21035;-72
2022/10/27 06:12:05;;;;;;;24.95;5.78;;;8.90;99.90;;;;;;1951115;73;21125;-72
2022/10/27 06:14:33;;;;;;;38.35;6.30;;;8.90;99.90;;;;;;1958066;73;21180;-71
2022/10/27 06:17:00;;;;;;;27.77;6.00;;;8.90;99.90;;;;;;1957487;73;21031;-71
2022/10/27 06:19:27;;;;;;;38.10;6.80;;;8.80;99.90;;;;;;1957797;72;21070;-71
2022/10/27 06:21:54;;;;;;;36.98;6.65;;;8.80;99.90;;;;;;1958165;72;21058;-71
2022/10/27 06:24:22;;;;;;;44.93;7.28;;;8.90;99.90;;;;;;1958259;72;21462;-71
2022/10/27 06:26:49;;;;;;;19.92;6.60;;;8.80;99.90;;;;;;1957510;73;21136;-72
2022/10/27 06:29:16;;;;;;;44.93;7.12;;;8.80;99.90;;;;;;1958909;71;21466;-72
2022/10/27 06:31:44;;;;;;;50.98;7.12;;;8.80;99.90;;;;;;1956371;73;21217;-72
2022/10/27 06:34:11;;;;;;;73.37;8.03;;;8.80;99.90;;;;;;1955127;73;21035;-73
2022/10/27 06:36:38;;;;;;;17.23;6.33;;;8.80;99.90;;;;;;1959260;72;21058;-73
2022/10/27 06:39:06;;;;;;;34.73;8.00;;;8.90;99.90;;;;;;1958438;71;21172;-73
2022/10/27 06:41:33;;;;;;;37.25;7.62;;;8.80;99.90;;;;;;1955518;71;21108;-72
2022/10/27 06:44:00;;;;;;;31.97;6.47;;;8.80;99.90;;;;;;1958147;73;21116;-73
2022/10/27 06:46:27;;;;;;;32.83;7.53;;;8.80;99.90;;;;;;1958719;73;21466;-73
2022/10/27 06:48:55;;;;;;;59.67;7.10;;;8.90;99.90;;;;;;1958068;73;21140;-71
2022/10/27 06:51:22;;;;;;;83.50;7.70;;;8.90;99.90;;;;;;1957885;73;21497;-71
2022/10/27 06:53:49;;;;;;;18.12;7.12;;;8.90;99.90;;;;;;1958906;71;21164;-71
2022/10/27 06:56:18;;;;;;;68.12;7.12;;;9.00;99.90;;;;;;1957700;73;21136;-70
2022/10/27 06:58:47;;;;;;;50.95;8.43;;;8.90;99.90;;;;;;1958074;72;21067;-71
2022/10/27 07:01:14;;;;;;;79.53;7.65;;;9.00;99.90;;;;;;1954906;73;21109;-73
2022/10/27 07:03:42;;;;;;;42.38;7.53;;;9.00;99.90;;;;;;1958319;72;21531;-72
2022/10/27 07:06:09;;;;;;;19.82;6.95;;;9.00;99.90;;;;;;1957707;73;21106;-72
2022/10/27 07:08:36;;;;;;;20.45;6.75;;;9.10;99.90;;;;;;1957368;73;21411;-73
2022/10/27 07:11:05;;;;;;;35.95;6.50;;;9.20;99.90;;;;;;1957655;71;21058;-72
2022/10/27 07:13:33;;;;;;;33.25;5.28;;;9.20;99.90;;;;;;1958798;73;21262;-73
2022/10/27 07:16:00;;;;;;;20.77;5.22;;;9.20;99.90;;;;;;1958694;72;21043;-73
2022/10/27 07:18:27;;;;;;;27.60;4.72;;;9.20;99.90;;;;;;1956644;71;21067;-74
2022/10/27 07:20:55;;;;;;;12.80;5.58;;;9.10;99.90;;;;;;1958443;71;21486;-73
2022/10/27 07:23:22;;;;;;;68.97;6.75;;;9.10;99.90;;;;;;1957728;73;21059;-74
2022/10/27 07:25:49;;;;;;;26.00;7.42;;;9.10;99.90;;;;;;1959272;71;21535;-74
2022/10/27 07:28:16;;;;;;;19.98;5.78;;;9.20;99.90;;;;;;1954699;73;21482;-75
2022/10/27 07:30:46;;;;;;;13.72;5.70;;;9.20;99.90;;;;;;1957927;73;22598;-75
2022/10/27 07:33:13;;;;;;;16.50;5.40;;;9.20;99.90;;;;;;1955161;73;21099;-76
2022/10/27 07:35:40;;;;;;;40.85;7.67;;;9.30;99.90;;;;;;1956577;73;21584;-75
2022/10/27 07:38:08;;;;;;;16.87;6.55;;;9.30;99.90;;;;;;1954808;73;21148;-76
2022/10/27 07:40:41;;;;;;;49.33;7.80;;;9.50;99.90;;;;;;1957976;73;21070;-74
2022/10/27 07:43:06;;;;;;;33.75;6.80;;;9.50;99.90;;;;;;1956494;73;21110;-76
2022/10/27 07:45:33;;;;;;;76.22;8.50;;;9.40;99.90;;;;;;1958498;71;21066;-76
2022/10/27 07:48:01;;;;;;;19.32;6.25;;;9.60;99.90;;;;;;1957970;73;21163;-76
2022/10/27 07:50:29;;;;;;;31.57;7.12;;;9.60;99.90;;;;;;1954750;73;21227;-76
2022/10/27 07:52:57;;;;;;;15.88;7.47;;;9.60;99.90;;;;;;1950285;73;21043;-76
2022/10/27 07:55:25;;;;;;;42.80;5.28;;;9.80;99.90;;;;;;1956262;71;21156;-75
2022/10/27 07:58:03;;;;;;;57.60;7.92;;;9.80;99.90;;;;;;1955936;72;21062;-76
2022/10/27 08:00:31;;;;;;;76.28;9.68;;;9.70;99.90;;;;;;1957847;73;21462;-76
2022/10/27 08:03:02;;;;;;;64.95;6.40;;;9.70;99.90;;;;;;1955877;73;21148;-75
2022/10/27 08:05:30;;;;;;;46.35;7.45;;;9.70;99.90;;;;;;1959206;73;21530;-75
2022/10/27 08:07:58;;;;;;;9.45;5.55;;;9.80;99.90;;;;;;1958204;73;21140;-75
2022/10/27 08:10:26;;;;;;;21.23;5.87;;;9.90;99.90;;;;;;1959296;73;21067;-76
2022/10/27 08:12:53;;;;;;;16.62;6.40;;;10.00;99.90;;;;;;1958552;73;21124;-75
2022/10/27 08:15:21;;;;;;;13.15;5.35;;;10.10;99.90;;;;;;1958433;72;21493;-74
2022/10/27 08:17:56;;;;;;;8.73;4.95;;;10.10;99.90;;;;;;1958434;72;21058;-75
2022/10/27 08:20:24;;;;;;;14.25;5.37;;;10.10;99.90;;;;;;1958722;71;21493;-75
2022/10/27 08:22:58;;;;;;;11.53;4.90;;;10.40;99.90;;;;;;1948927;73;21504;-75
2022/10/27 08:25:26;;;;;;;9.55;4.75;;;10.70;99.90;;;;;;1958123;71;21073;-75
2022/10/27 08:27:53;;;;;;;6.20;4.45;;;10.70;99.90;;;;;;1958971;73;21539;-74
2022/10/27 08:30:21;;;;;;;4.92;3.80;;;10.70;99.90;;;;;;1956644;73;21230;-74
2022/10/27 08:32:48;;;;;;;9.10;4.35;;;11.10;99.90;;;;;;1958020;73;21072;-75
2022/10/27 08:35:16;;;;;;;4.40;3.45;;;11.10;99.90;;;;;;1955624;73;21093;-75
2022/10/27 08:37:44;;;;;;;5.78;3.87;;;11.50;99.90;;;;;;1958870;71;21184;-75
2022/10/27 08:40:11;;;;;;;7.80;3.70;;;11.90;99.90;;;;;;1957285;72;21152;-75
2022/10/27 08:43:12;;;;;;;6.03;3.17;;;12.10;99.90;;;;;;1957318;73;21082;-75
2022/10/27 08:45:40;;;;;;;;;;;12.20;99.90;;;;;;1899617;73;21474;-74
2022/10/27 08:48:07;;;;;;;10.58;4.05;;;12.10;99.90;;;;;;1935946;73;20224;-75
2022/10/27 08:50:38;;;;;;;9.10;5.03;;;12.00;99.90;;;;;;1936818;73;21476;-75
2022/10/27 08:53:07;;;;;;;10.28;5.15;;;12.30;99.90;;;;;;1953988;73;21129;-75
2022/10/27 08:55:40;;;;;;;15.32;5.87;;;12.40;99.90;;;;;;1936352;73;21124;-75
2022/10/27 08:58:35;;;;;;;18.27;6.22;;;12.60;99.90;;;;;;1940935;73;21026;-76
2022/10/27 09:01:18;;;;;;;18.48;7.30;;;12.90;99.90;;;;;;1953401;73;21128;-75
2022/10/27 09:04:03;;;;;;;16.97;7.22;;;13.20;99.90;;;;;;1935507;72;21121;-75
2022/10/27 09:06:42;;;;;;;12.80;6.45;;;13.40;99.90;;;;;;1946132;73;21054;-76
2022/10/27 09:09:21;;;;;;;10.32;5.70;;;13.50;99.90;;;;;;1931688;72;21445;-76
2022/10/27 09:11:58;;;;;;;12.88;6.03;;;13.70;99.90;;;;;;1950874;72;21105;-74
2022/10/27 09:14:31;;;;;;;11.70;5.40;;;13.80;99.90;;;;;;1945102;73;21136;-76
2022/10/27 09:17:11;;;;;;;16.67;5.90;;;13.70;99.90;;;;;;1948114;73;21527;-76
2022/10/27 09:20:00;;;;;;;11.28;5.17;;;14.00;99.90;;;;;;1951049;72;21255;-75
2022/10/27 09:22:28;;;;;;;12.18;5.42;;;14.60;99.90;;;;;;1945025;73;21136;-75
2022/10/27 09:24:58;;;;;;;11.50;5.12;;;14.70;99.90;;;;;;1948010;72;21039;-75
2022/10/27 09:27:25;;;;;;;9.73;5.33;;;14.80;99.90;;;;;;1953714;73;21186;-74
2022/10/27 09:29:53;;;;;;;11.25;5.03;;;14.80;99.90;;;;;;1927708;73;21066;-76
2022/10/27 09:32:24;;;;;;;11.83;4.00;;;15.00;99.90;;;;;;1924440;73;21426;-76
2022/10/27 09:34:53;;;;;;;7.40;4.08;;;15.40;99.90;;;;;;1946177;73;21498;-74
2022/10/27 09:37:20;;;;;;;6.40;4.17;;;15.60;99.90;;;;;;1929241;73;21061;-74
2022/10/27 09:39:49;;;;;;;11.57;5.08;;;15.60;99.90;;;;;;1950081;73;21120;-74
2022/10/27 09:42:18;;;;;;;11.55;4.30;;;15.70;99.90;;;;;;1931935;73;21062;-73
2022/10/27 09:44:47;;;;;;;8.30;4.33;;;16.10;99.90;;;;;;1936305;73;21531;-75
2022/10/27 09:47:15;;;;;;;7.47;3.93;;;16.30;99.90;;;;;;1944487;73;21396;-75
2022/10/27 09:49:43;;;;;;;12.13;4.20;;;16.60;99.90;;;;;;1951596;73;21128;-75
2022/10/27 09:52:12;;;;;;;17.45;4.47;;;16.90;99.90;;;;;;1938941;73;21446;-75
2022/10/27 09:54:41;;;;;;;5.70;3.35;;;17.10;99.90;;;;;;1942477;73;21074;-75
2022/10/27 09:57:15;;;;;;;8.85;4.25;;;17.20;99.90;;;;;;1947504;73;21470;-75
2022/10/27 09:59:42;;;;;;;11.70;3.62;;;17.20;99.90;;;;;;1945026;73;21045;-75
2022/10/27 10:02:25;;;;;;;13.75;3.47;;;17.40;99.90;;;;;;1942272;73;21123;-75
2022/10/27 10:04:52;;;;;;;9.73;3.62;;;17.50;99.90;;;;;;1952613;73;21066;-75
2022/10/27 10:07:36;;;;;;;10.75;3.70;;;17.60;99.90;;;;;;1938870;73;21446;-75
2022/10/27 10:10:15;;;;;;;7.58;3.35;;;17.90;99.90;;;;;;1936746;73;21124;-76
2022/10/27 10:12:44;;;;;;;6.10;2.55;;;18.00;99.90;;;;;;1938764;73;21111;-74
2022/10/27 10:15:15;;;;;;;7.90;2.77;;;18.40;99.90;;;;;;1937260;72;21445;-75
2022/10/27 10:17:44;;;;;;;16.67;3.42;;;18.50;99.90;;;;;;1942134;73;21053;-76
2022/10/27 10:20:35;;;;;;;7.78;2.85;;;18.60;99.90;;;;;;1945254;73;21031;-75
2022/10/27 10:23:02;;;;;;;;;;;18.80;99.90;;;;;;1943378;73;21520;-75
2022/10/27 10:25:32;;;;;;;5.65;2.30;;;19.00;99.90;;;;;;1948323;73;20368;-75
2022/10/27 10:28:03;;;;;;;;;;;19.30;99.90;;;;;;1948898;73;21070;-73
2022/10/27 10:30:31;;;;;;;;;;;19.50;99.90;;;;;;1953046;73;20179;-75
2022/10/27 10:32:59;;;;;;;10.80;2.77;;;19.50;99.90;;;;;;1949119;73;20186;-75
2022/10/27 10:35:48;;;;;;;4.92;2.10;;;19.80;99.90;;;;;;1933396;73;21139;-74
2022/10/27 10:38:26;;;;;;;4.65;2.40;;;19.90;99.90;;;;;;1938745;73;21160;-75
2022/10/27 10:41:01;;;;;;;8.03;2.70;;;20.20;99.90;;;;;;1946147;73;21027;-74
2022/10/27 10:43:29;;;;;;;7.45;2.35;;;20.50;99.90;;;;;;1945477;72;21124;-73
2022/10/27 10:45:56;;;;;;;8.53;2.75;;;20.40;99.90;;;;;;1937627;72;21157;-73
2022/10/27 10:48:27;;;;;;;8.55;2.33;;;20.30;99.90;;;;;;1944127;73;21458;-72
2022/10/27 10:50:54;;;;;;;12.73;2.27;;;20.50;99.90;;;;;;1947445;73;21069;-74
2022/10/27 10:53:33;;;;;;;6.17;2.05;;;20.80;99.90;;;;;;1941316;72;21206;-73
2022/10/27 10:56:02;;;;;;;6.08;2.30;;;21.00;99.90;;;;;;1950126;73;21494;-72
2022/10/27 10:58:31;;;;;;;9.45;2.92;;;21.00;99.90;;;;;;1931806;73;21513;-73
2022/10/27 11:01:00;;;;;;;6.28;2.22;;;21.30;99.90;;;;;;1941218;72;21493;-73
2022/10/27 11:03:42;;;;;;;5.65;2.08;;;21.20;99.90;;;;;;1954720;73;21213;-73
2022/10/27 11:06:20;;;;;;;10.08;2.42;;;21.00;99.90;;;;;;1943102;73;21062;-73
2022/10/27 11:08:59;;;;;;;11.80;2.30;;;21.30;99.90;;;;;;1950123;73;21478;-74
2022/10/27 11:11:30;;;;;;;9.45;2.33;;;21.20;99.90;;;;;;1939633;73;21090;-73
2022/10/27 11:14:00;;;;;;;11.70;3.05;;;21.70;99.90;;;;;;1945100;73;21058;-73
2022/10/27 11:16:28;;;;;;;5.33;2.17;;;21.50;99.90;;;;;;1935332;72;21066;-72
2022/10/27 11:18:57;;;;;;;6.33;2.22;;;21.70;99.90;;;;;;1901166;73;21065;-74
2022/10/27 11:21:55;;;;;;;10.53;2.67;;;21.90;99.90;;;;;;1923133;73;21062;-72
2022/10/27 11:24:28;;;;;;;10.98;2.50;;;22.00;99.90;;;;;;1940143;73;21445;-73
2022/10/27 11:27:07;;;;;;;7.03;2.20;;;22.20;99.90;;;;;;1941102;72;21105;-73
2022/10/27 11:29:46;;;;;;;9.70;2.98;;;22.30;99.90;;;;;;1943564;73;21062;-73
2022/10/27 11:32:37;;;;;;;6.37;2.27;;;22.50;99.90;;;;;;1951964;72;21089;-74
2022/10/27 11:35:16;;;;;;;;;;;22.80;99.90;;;;;;1957592;72;21481;-73
2022/10/27 11:38:04;;;;;;;6.85;2.22;;;22.70;99.90;;;;;;1951284;73;20119;-73
2022/10/27 11:40:44;;;;;;;7.92;2.52;;;23.00;99.90;;;;;;1939364;73;21136;-73
2022/10/27 11:43:23;;;;;;;8.00;1.70;;;23.30;99.90;;;;;;1931351;73;21184;-72
2022/10/27 11:45:54;;;;;;;10.65;2.67;;;22.80;99.90;;;;;;1945903;72;21145;-73
2022/10/27 11:48:27;;;;;;;6.28;2.20;;;22.90;99.90;;;;;;1943511;73;21062;-73
2022/10/27 11:51:04;;;;;;;7.78;2.67;;;23.70;99.90;;;;;;1930851;73;21120;-76
2022/10/27 11:53:31;;;;;;;11.48;2.62;;;23.80;99.90;;;;;;1949964;73;21203;-72
2022/10/27 11:56:08;;;;;;;7.10;2.22;;;23.80;99.90;;;;;;1948190;72;21066;-72
2022/10/27 11:58:56;;;;;;;10.48;3.20;;;23.60;99.90;;;;;;1949683;73;21036;-73
2022/10/27 12:01:39;;;;;;;7.30;3.00;;;24.00;99.90;;;;;;1943494;73;21117;-73
2022/10/27 12:04:12;;;;;;;10.88;2.67;;;24.10;99.90;;;;;;1948502;73;21105;-73
2022/10/27 12:06:43;;;;;;;4.28;2.12;;;24.30;99.90;;;;;;1943400;73;21125;-74
2022/10/27 12:09:22;;;;;;;8.75;2.25;;;24.30;99.90;;;;;;1935436;73;21124;-73
2022/10/27 12:11:58;;;;;;;6.40;2.30;;;24.10;99.90;;;;;;1941178;73;21547;-72
2022/10/27 12:14:32;;;;;;;8.08;2.37;;;23.90;99.90;;;;;;1942955;73;21070;-73
2022/10/27 12:17:14;;;;;;;7.33;2.40;;;24.00;99.90;;;;;;1927876;73;21131;-73
2022/10/27 12:19:43;;;;;;;8.50;2.37;;;24.00;99.90;;;;;;1953235;73;21481;-74
2022/10/27 12:22:13;;;;;;;8.60;2.70;;;24.00;99.90;;;;;;1948121;73;21267;-72
2022/10/27 12:24:58;;;;;;;6.67;2.35;;;24.30;99.90;;;;;;1944206;73;21173;-72
2022/10/27 12:27:29;;;;;;;6.28;2.30;;;24.40;99.90;;;;;;1939153;73;21245;-72
2022/10/27 12:29:59;;;;;;;6.35;2.30;;;24.20;99.90;;;;;;1946897;72;21139;-73
2022/10/27 12:32:38;;;;;;;9.35;2.42;;;24.80;99.90;;;;;;1937263;73;21110;-73
2022/10/27 12:35:26;;;;;;;12.05;2.10;;;25.00;99.90;;;;;;1927863;73;21035;-72
2022/10/27 12:38:15;;;;;;;8.60;2.27;;;25.30;99.90;;;;;;1944723;73;21460;-73
2022/10/27 12:41:08;;;;;;;7.25;1.77;;;25.70;99.90;;;;;;1939030;73;21112;-73
2022/10/27 12:44:01;;;;;;;3.55;1.70;;;26.10;99.90;;;;;;1945543;72;21132;-71
2022/10/27 12:46:49;;;;;;;5.85;2.10;;;25.80;99.90;;;;;;1941397;73;21038;-72
2022/10/27 12:49:37;;;;;;;4.62;1.37;;;25.90;99.90;;;;;;1938135;73;21498;-71
2022/10/27 12:52:19;;;;;;;5.80;2.08;;;26.10;99.90;;;;;;1947496;73;21450;-72
2022/10/27 12:55:00;;;;;;;6.92;1.80;;;26.00;99.90;;;;;;1954082;72;21059;-72
2022/10/27 12:57:36;;;;;;;6.60;2.12;;;26.10;99.90;;;;;;1941725;73;21134;-72
2022/10/27 13:00:14;;;;;;;6.97;1.60;;;25.90;99.90;;;;;;1947074;73;22528;-70
2022/10/27 13:02:53;;;;;;;9.10;1.82;;;26.00;99.90;;;;;;1947764;73;21059;-71
2022/10/27 13:05:46;;;;;;;6.42;1.70;;;26.20;99.90;;;;;;1939058;73;21116;-72
2022/10/27 13:08:46;;;;;;;5.92;1.52;;;26.40;99.90;;;;;;1940976;73;21117;-72